Terminal Aerodrome Forecast
Issued by NWS Louisville, KY

Home | Current Version | Previous Version | Text Only | Print | Product List | Glossary On
Versions: 1 2 3 4 5 6 7 8 9 10 11 12 13 14 15 16
000
FTUS43 KLMK 242300
TAFLEX
TAF
KLEX 242320Z 2500/2524 27013G20KT P6SM OVC015
     FM250200 27012KT P6SM VCSH BKN018
     FM250900 25010KT P6SM BKN018
     FM252000 21009KT P6SM SCT022=

USA.gov is the U.S. government's official web portal to all federal, state and local government web resources and services.